Time;durP1;ratioP1;P1;durP2;ratioP2;P2;SDS_P1;SDS_P2;PMS_P1;PMS_P2;Temp;Humidity;BMP_temperature;BMP_pressure;BME280_temperature;BME280_humidity;BME280_pressure;Samples;Min_cycle;Max_cycle;Signal;HPM_P1;HPM_P2
2022/02/28 00:00:58;;;;;;;8.43;4.97;;;;;;;-1.14;70.84;101024.33;1748427;82;21137;-84
2022/02/28 00:03:26;;;;;;;8.63;5.40;;;;;;;-1.10;70.82;101025.73;1752383;81;21047;-81
2022/02/28 00:05:53;;;;;;;11.53;5.58;;;;;;;-1.05;70.92;101030.66;1784755;80;20983;-79
2022/02/28 00:08:21;;;;;;;10.20;5.53;;;;;;;-1.01;70.95;101028.64;1762827;80;21112;-83
2022/02/28 00:10:48;;;;;;;11.78;5.85;;;;;;;-0.94;70.85;101028.94;1753469;81;21088;-81
2022/02/28 00:13:14;;;;;;;12.80;6.15;;;;;;;-0.90;70.84;101026.05;1750816;81;22389;-80
2022/02/28 00:15:40;;;;;;;9.80;5.62;;;;;;;-0.86;70.90;101027.91;1753989;81;21063;-81
2022/02/28 00:18:07;;;;;;;11.08;6.95;;;;;;;-0.82;70.90;101031.09;1753664;81;21071;-84
2022/02/28 00:20:35;;;;;;;14.83;7.22;;;;;;;-0.80;70.91;101029.84;1764333;80;21117;-83
2022/02/28 00:23:02;;;;;;;12.85;6.87;;;;;;;-0.76;70.89;101026.53;1770880;80;21036;-82
2022/02/28 00:25:30;;;;;;;13.50;6.70;;;;;;;-0.72;70.82;101030.10;1754249;81;21082;-82
2022/02/28 00:27:56;;;;;;;10.50;5.80;;;;;;;-0.68;70.72;101029.41;1753478;81;21043;-82
2022/02/28 00:30:23;;;;;;;9.83;5.45;;;;;;;-0.66;70.78;101035.50;1754394;80;21972;-81
2022/02/28 00:32:50;;;;;;;9.23;5.10;;;;;;;-0.64;70.75;101029.97;1737393;80;21189;-82
2022/02/28 00:35:16;;;;;;;11.68;5.50;;;;;;;-0.62;70.66;101029.63;1742541;80;21597;-82
2022/02/28 00:37:43;;;;;;;7.83;5.20;;;;;;;-0.62;70.65;101035.67;1744029;82;21228;-81
2022/02/28 00:40:11;;;;;;;12.10;6.00;;;;;;;-0.61;70.54;101033.95;1745475;80;21099;-81
2022/02/28 00:42:39;;;;;;;10.05;4.87;;;;;;;-0.61;70.45;101033.95;1785432;80;21030;-81
2022/02/28 00:45:06;;;;;;;8.63;5.22;;;;;;;-0.60;70.33;101027.97;1785826;80;21169;-80
2022/02/28 00:47:33;;;;;;;7.97;5.37;;;;;;;-0.61;70.31;101033.53;1786098;80;21497;-82
2022/02/28 00:49:59;;;;;;;8.78;4.78;;;;;;;-0.60;70.28;101026.68;1769521;80;21507;-81
2022/02/28 00:52:26;;;;;;;7.15;5.28;;;;;;;-0.61;70.20;101027.49;1780281;80;21042;-80
2022/02/28 00:54:53;;;;;;;8.90;4.92;;;;;;;-0.61;70.16;101032.66;1755444;81;22143;-83
2022/02/28 00:57:19;;;;;;;7.87;4.97;;;;;;;-0.61;70.10;101031.38;1752734;81;21591;-81
2022/02/28 00:59:45;;;;;;;11.12;5.62;;;;;;;-0.64;70.07;101036.42;1708423;82;21202;-80
2022/02/28 01:02:12;;;;;;;7.65;5.58;;;;;;;-0.64;70.00;101041.59;1707090;83;21135;-81
2022/02/28 01:04:38;;;;;;;11.33;6.30;;;;;;;-0.68;69.93;101039.75;1704422;82;21054;-79
2022/02/28 01:07:05;;;;;;;9.73;6.15;;;;;;;-0.69;69.87;101039.27;1744667;82;21062;-83
2022/02/28 01:09:34;;;;;;;7.10;5.35;;;;;;;-0.72;69.83;101040.44;1742404;82;21106;-81
2022/02/28 01:12:02;;;;;;;11.00;6.12;;;;;;;-0.78;69.95;101040.69;1747577;82;21111;-84
2022/02/28 01:14:28;;;;;;;10.30;6.70;;;;;;;-0.81;70.04;101038.41;1746466;82;21500;-82
2022/02/28 01:16:55;;;;;;;10.48;7.10;;;;;;;-0.85;69.99;101033.98;1741732;80;21036;-83
2022/02/28 01:19:21;;;;;;;8.03;5.55;;;;;;;-0.87;69.91;101039.08;1745993;82;21866;-82
2022/02/28 01:21:48;;;;;;;10.38;6.20;;;;;;;-0.90;69.88;101037.67;1748714;82;21025;-84
2022/02/28 01:24:14;;;;;;;9.85;6.60;;;;;;;-0.93;69.89;101036.27;1684772;83;21129;-83
2022/02/28 01:26:41;;;;;;;9.18;6.10;;;;;;;-0.97;69.96;101039.58;1719146;82;21993;-83
2022/02/28 01:29:08;;;;;;;13.95;6.12;;;;;;;-1.01;70.02;101035.10;1719055;83;21074;-83
2022/02/28 01:31:35;;;;;;;7.97;5.42;;;;;;;-1.05;70.04;101033.25;1738816;82;21562;-81
2022/02/28 01:34:01;;;;;;;7.12;5.47;;;;;;;-1.06;69.98;101032.77;1752066;80;21618;-83
2022/02/28 01:36:28;;;;;;;8.13;6.00;;;;;;;-1.09;69.92;101029.67;1749134;82;21035;-84
2022/02/28 01:38:54;;;;;;;10.30;6.12;;;;;;;-1.10;69.83;101036.07;1747270;82;21200;-83
2022/02/28 01:41:20;;;;;;;7.05;5.45;;;;;;;-1.13;69.75;101038.11;1712473;83;21074;-82
2022/02/28 01:43:47;;;;;;;9.25;5.35;;;;;;;-1.18;69.77;101031.51;1712418;83;21557;-79
2022/02/28 01:46:13;;;;;;;8.18;5.87;;;;;;;-1.20;69.74;101035.70;1748561;81;21067;-82
2022/02/28 01:48:40;;;;;;;9.28;5.40;;;;;;;-1.23;69.70;101035.59;1746417;82;21071;-79
2022/02/28 01:51:06;;;;;;;8.45;6.28;;;;;;;-1.25;69.68;101034.66;1713812;82;21531;-83
2022/02/28 01:53:33;;;;;;;8.43;5.47;;;;;;;-1.28;69.66;101033.67;1745164;82;22199;-83
2022/02/28 01:56:00;;;;;;;8.50;6.20;;;;;;;-1.33;69.80;101037.36;1748985;82;21134;-83
2022/02/28 01:58:35;;;;;;;11.05;6.53;;;;;;;-1.37;69.96;101041.95;1712088;83;21613;-82
2022/02/28 02:01:04;;;;;;;8.80;5.78;;;;;;;-1.39;69.96;101038.44;1712417;83;21110;-80
2022/02/28 02:03:32;;;;;;;11.20;6.12;;;;;;;-1.42;69.96;101040.90;1706089;83;21396;-83
2022/02/28 02:05:59;;;;;;;9.48;6.00;;;;;;;-1.42;70.03;101033.16;1704782;84;21051;-81
2022/02/28 02:08:26;;;;;;;9.25;6.15;;;;;;;-1.45;70.17;101033.03;1703354;84;21084;-82
2022/02/28 02:10:53;;;;;;;11.45;5.37;;;;;;;-1.47;70.08;101038.55;1740342;80;21099;-82
2022/02/28 02:13:19;;;;;;;9.30;6.10;;;;;;;-1.48;70.04;101031.61;1739216;82;21559;-81
2022/02/28 02:15:46;;;;;;;10.90;6.85;;;;;;;-1.50;70.08;101033.75;1740898;80;21154;-81
2022/02/28 02:18:13;;;;;;;7.45;5.35;;;;;;;-1.50;70.10;101037.62;1682989;84;21538;-81
2022/02/28 02:20:39;;;;;;;8.28;5.70;;;;;;;-1.52;70.11;101044.40;1701272;84;21110;-80
2022/02/28 02:23:11;;;;;;;10.43;6.08;;;;;;;-1.55;70.17;101048.14;1705830;84;21079;-82
2022/02/28 02:25:37;;;;;;;8.53;5.28;;;;;;;-1.57;70.34;101057.53;1705111;84;21511;-83
2022/02/28 02:28:06;;;;;;;9.45;5.80;;;;;;;-1.61;70.60;101059.54;1704728;84;21106;-84
2022/02/28 02:30:33;;;;;;;8.85;5.50;;;;;;;-1.63;70.87;101062.48;1701451;84;21058;-80
2022/02/28 02:33:00;;;;;;;10.58;5.87;;;;;;;-1.65;71.04;101062.80;1678020;84;21175;-82
2022/02/28 02:35:27;;;;;;;8.35;5.45;;;;;;;-1.69;71.18;101058.35;1700848;83;21068;-82
2022/02/28 02:37:53;;;;;;;10.25;5.42;;;;;;;-1.73;71.26;101063.80;1690749;84;21091;-81
2022/02/28 02:40:20;;;;;;;8.30;5.28;;;;;;;-1.75;71.30;101055.52;1679872;83;21654;-84
2022/02/28 02:42:46;;;;;;;9.55;5.58;;;;;;;-1.77;71.43;101061.03;1680485;84;21628;-82
2022/02/28 02:45:13;;;;;;;7.92;4.97;;;;;;;-1.80;71.49;101061.80;1681281;82;21003;-81
2022/02/28 02:47:40;;;;;;;8.85;4.67;;;;;;;-1.82;71.51;101060.84;1714725;83;22385;-83
2022/02/28 02:50:11;;;;;;;6.67;5.08;;;;;;;-1.85;71.60;101061.13;1770858;80;20992;-85
2022/02/28 02:52:37;;;;;;;8.23;5.05;;;;;;;-1.85;71.62;101055.97;1733489;80;22242;-83
2022/02/28 02:55:05;;;;;;;10.60;4.90;;;;;;;-1.89;71.71;101051.97;1738693;80;21035;-84
2022/02/28 02:57:31;;;;;;;7.20;4.40;;;;;;;-1.90;71.72;101051.52;1739679;80;21108;-85
2022/02/28 03:00:08;;;;;;;6.72;5.08;;;;;;;-1.93;71.82;101053.09;1738826;82;21128;-80
2022/02/28 03:02:37;;;;;;;6.47;4.35;;;;;;;-1.93;71.89;101058.25;1733740;80;21071;-83
2022/02/28 03:05:05;;;;;;;5.47;4.37;;;;;;;-1.96;71.88;101055.13;1777401;80;21185;-83
2022/02/28 03:07:32;;;;;;;6.50;4.53;;;;;;;-1.96;71.90;101059.00;1769788;80;21043;-84
2022/02/28 03:09:58;;;;;;;6.78;4.40;;;;;;;-1.98;71.92;101056.77;1752408;81;21558;-81
2022/02/28 03:12:25;;;;;;;6.20;5.08;;;;;;;-1.97;71.95;101059.80;1744679;81;21137;-81
2022/02/28 03:14:53;;;;;;;6.63;4.67;;;;;;;-2.01;72.08;101052.77;1753660;81;21000;-81
2022/02/28 03:17:19;;;;;;;10.15;5.00;;;;;;;-2.02;72.15;101063.89;1754625;81;21099;-81
2022/02/28 03:19:46;;;;;;;6.47;4.12;;;;;;;-2.03;72.27;101061.25;1753848;81;21093;-80
2022/02/28 03:22:12;;;;;;;8.20;4.58;;;;;;;-2.04;72.33;101058.21;1754440;80;21635;-82
2022/02/28 03:24:41;;;;;;;7.80;4.47;;;;;;;-2.06;72.42;101055.56;1717354;83;21078;-80
2022/02/28 03:27:07;;;;;;;7.87;4.40;;;;;;;-2.07;72.47;101048.64;1703346;83;21588;-81
2022/02/28 03:29:33;;;;;;;5.60;3.90;;;;;;;-2.07;72.46;101051.22;1688425;84;21152;-81
2022/02/28 03:32:00;;;;;;;5.67;4.25;;;;;;;-2.07;72.45;101053.80;1719160;82;21079;-81
2022/02/28 03:34:26;;;;;;;7.10;4.20;;;;;;;-2.08;72.45;101055.92;1730815;82;21522;-84
2022/02/28 03:36:53;;;;;;;7.20;4.03;;;;;;;-2.09;72.41;101058.02;1689166;84;21137;-79
2022/02/28 03:39:19;;;;;;;4.80;3.85;;;;;;;-2.12;72.37;101052.34;1689566;84;21568;-83
2022/02/28 03:41:46;;;;;;;5.17;4.22;;;;;;;-2.13;72.41;101053.56;1680967;83;21122;-82
2022/02/28 03:44:14;;;;;;;6.92;4.65;;;;;;;-2.15;72.52;101051.30;1715857;83;21083;-85
2022/02/28 03:46:41;;;;;;;5.03;3.83;;;;;;;-2.18;72.61;101054.66;1713540;83;21557;-87
2022/02/28 03:49:15;;;;;;;6.05;4.08;;;;;;;-2.19;72.77;101049.43;1712296;83;21048;-81
2022/02/28 03:51:46;;;;;;;4.00;3.60;;;;;;;-2.20;72.75;101052.81;1710871;83;21638;-80
2022/02/28 03:54:14;;;;;;;6.35;3.90;;;;;;;-2.22;72.70;101049.30;1711238;83;21678;-81
2022/02/28 03:56:42;;;;;;;4.37;3.92;;;;;;;-2.22;72.64;101049.30;1681595;84;21094;-80
2022/02/28 03:59:09;;;;;;;4.53;3.87;;;;;;;-2.26;72.59;101054.32;1704952;83;21106;-82
2022/02/28 04:01:36;;;;;;;7.25;3.72;;;;;;;-2.26;72.55;101057.31;1707796;83;21137;-80
2022/02/28 04:04:04;;;;;;;4.20;3.90;;;;;;;-2.29;72.51;101054.19;1671473;84;21595;-81
2022/02/28 04:06:32;;;;;;;5.67;3.67;;;;;;;-2.31;72.54;101053.66;1693682;82;21146;-82
2022/02/28 04:08:59;;;;;;;6.05;4.12;;;;;;;-2.33;72.50;101057.88;1717840;83;21151;-82
2022/02/28 04:11:26;;;;;;;6.25;4.20;;;;;;;-2.35;72.47;101059.11;1708758;82;21073;-79
2022/02/28 04:13:53;;;;;;;5.42;4.00;;;;;;;-2.36;72.38;101062.48;1695118;82;20994;-82
2022/02/28 04:16:20;;;;;;;6.58;4.10;;;;;;;-2.37;72.33;101064.99;1695983;82;21022;-80
2022/02/28 04:18:48;;;;;;;5.00;4.05;;;;;;;-2.39;72.35;101062.34;1689610;82;21152;-81
2022/02/28 04:21:25;;;;;;;4.75;3.72;;;;;;;-2.40;72.33;101064.47;1692314;82;21530;-78
2022/02/28 04:23:52;;;;;;;7.08;4.60;;;;;;;-2.42;72.33;101063.53;1689471;82;21023;-79
2022/02/28 04:26:19;;;;;;;3.95;3.55;;;;;;;-2.42;72.42;101073.84;1697267;82;21046;-85
2022/02/28 04:28:46;;;;;;;7.83;4.30;;;;;;;-2.45;72.45;101072.41;1690237;82;21689;-82
2022/02/28 04:31:13;;;;;;;4.17;3.45;;;;;;;-2.45;72.52;101073.70;1694938;82;21119;-79
2022/02/28 04:33:40;;;;;;;6.17;4.37;;;;;;;-2.46;72.48;101073.22;1698044;82;21472;-79
2022/02/28 04:36:07;;;;;;;4.92;4.15;;;;;;;-2.47;72.44;101074.92;1694785;83;20999;-83
2022/02/28 04:38:33;;;;;;;5.85;3.80;;;;;;;-2.48;72.47;101082.59;1690542;83;21539;-80
2022/02/28 04:41:00;;;;;;;5.67;4.12;;;;;;;-2.50;72.47;101086.80;1694223;83;21149;-84
2022/02/28 04:43:26;;;;;;;5.75;3.77;;;;;;;-2.52;72.41;101085.83;1689628;83;21122;-84
2022/02/28 04:45:53;;;;;;;5.75;3.52;;;;;;;-2.55;72.47;101085.72;1689875;83;22102;-80
2022/02/28 04:48:21;;;;;;;5.40;3.92;;;;;;;-2.56;72.52;101089.10;1690417;83;21062;-80
2022/02/28 04:50:55;;;;;;;7.17;4.10;;;;;;;-2.58;72.60;101092.02;1687120;83;21069;-82
2022/02/28 04:53:18;;;;;;;7.55;3.83;;;;;;;-2.63;72.67;101093.97;1689964;82;21097;-84
2022/02/28 04:55:44;;;;;;;5.28;3.80;;;;;;;-2.63;72.68;101104.28;1689651;83;21133;-80
2022/02/28 04:58:11;;;;;;;5.65;3.67;;;;;;;-2.63;72.71;101103.41;1664252;83;22086;-80
2022/02/28 05:00:40;;;;;;;5.72;3.62;;;;;;;-2.66;72.66;101101.56;1693676;83;21145;-83
2022/02/28 05:03:06;;;;;;;4.03;3.62;;;;;;;-2.68;72.72;101100.63;1674570;84;22289;-85
2022/02/28 05:05:34;;;;;;;5.37;3.25;;;;;;;-2.69;72.83;101100.16;1667665;84;21085;-83
2022/02/28 05:08:01;;;;;;;15.63;3.90;;;;;;;-2.68;72.83;101098.05;1680231;82;21543;-84
2022/02/28 05:10:28;;;;;;;4.17;3.50;;;;;;;-2.65;72.90;101094.32;1679747;84;21063;-82
2022/02/28 05:12:56;;;;;;;5.65;3.45;;;;;;;-2.64;72.98;101091.33;1718231;81;21099;-81
2022/02/28 05:15:23;;;;;;;5.37;3.67;;;;;;;-2.60;73.00;101097.52;1712013;82;21102;-82
2022/02/28 05:17:50;;;;;;;7.70;3.95;;;;;;;-2.58;73.09;101097.17;1656641;84;21126;-78
2022/02/28 05:20:18;;;;;;;4.33;3.80;;;;;;;-2.55;73.10;101096.91;1725776;82;21553;-79
2022/02/28 05:22:45;;;;;;;4.87;3.62;;;;;;;-2.52;73.01;101100.00;1711967;82;21092;-80
2022/02/28 05:25:13;;;;;;;4.37;3.50;;;;;;;-2.50;73.00;101102.27;1711422;82;21705;-77
2022/02/28 05:27:45;;;;;;;4.67;3.77;;;;;;;-2.47;72.98;101104.95;1711554;82;21082;-82
2022/02/28 05:30:13;;;;;;;6.95;4.00;;;;;;;-2.45;73.02;101104.64;1680068;83;21668;-80
2022/02/28 05:32:41;;;;;;;3.77;3.27;;;;;;;-2.44;73.01;101106.38;1752058;80;21581;-79
2022/02/28 05:35:12;;;;;;;4.12;3.83;;;;;;;-2.45;72.94;101103.34;1688186;82;21035;-83
2022/02/28 05:37:57;;;;;;;4.50;3.47;;;;;;;-2.44;72.97;101102.52;1711370;82;21098;-84
2022/02/28 05:40:23;;;;;;;4.08;3.27;;;;;;;-2.40;72.92;101109.58;1677942;83;21126;-78
2022/02/28 05:42:51;;;;;;;3.62;3.33;;;;;;;-2.37;72.86;101104.56;1722444;82;21067;-82
2022/02/28 05:45:17;;;;;;;6.42;3.72;;;;;;;-2.32;72.70;101105.64;1676271;84;21111;-82
2022/02/28 05:47:46;;;;;;;3.50;3.20;;;;;;;-2.29;72.48;101113.48;1711570;82;21139;-80
2022/02/28 05:50:13;;;;;;;4.25;2.90;;;;;;;-2.23;72.21;101117.17;1711442;82;21063;-82
2022/02/28 05:52:39;;;;;;;4.62;3.50;;;;;;;-2.19;72.16;101116.05;1720472;81;21091;-78
2022/02/28 05:55:08;;;;;;;3.05;2.80;;;;;;;-2.12;71.91;101118.48;1761317;81;22044;-78
2022/02/28 05:57:37;;;;;;;3.40;2.95;;;;;;;-2.07;71.64;101114.40;1762188;81;20977;-80
2022/02/28 06:00:08;;;;;;;4.22;3.08;;;;;;;-2.01;71.36;101116.38;1761573;81;21007;-79
2022/02/28 06:02:36;;;;;;;3.30;2.92;;;;;;;-1.96;70.92;101117.03;1727317;81;21122;-82
2022/02/28 06:05:03;;;;;;;4.60;3.02;;;;;;;-1.85;70.61;101112.72;1725168;81;21110;-84
2022/02/28 06:07:30;;;;;;;3.83;2.72;;;;;;;-1.80;70.19;101117.28;1731012;80;21074;-81
2022/02/28 06:09:57;;;;;;;6.85;3.12;;;;;;;-1.72;69.86;101116.28;1703822;82;22263;-85
2022/02/28 06:12:23;;;;;;;5.30;3.02;;;;;;;-1.66;69.63;101117.84;1690589;82;21153;-77
2022/02/28 06:14:50;;;;;;;4.37;3.25;;;;;;;-1.60;69.19;101110.31;1693636;83;21592;-81
2022/02/28 06:17:16;;;;;;;4.05;2.77;;;;;;;-1.54;68.86;101120.90;1693812;83;21081;-81
2022/02/28 06:19:43;;;;;;;8.50;4.03;;;;;;;-1.47;68.63;101122.45;1716824;83;21043;-85
2022/02/28 06:22:10;;;;;;;2.92;2.60;;;;;;;-1.42;68.18;101118.34;1682817;84;21106;-79
2022/02/28 06:24:36;;;;;;;2.85;2.30;;;;;;;-1.38;67.60;101126.67;1688878;83;21014;-80
2022/02/28 06:27:04;;;;;;;2.95;2.70;;;;;;;-1.35;66.57;101129.38;1689406;84;21053;-81
2022/02/28 06:29:31;;;;;;;4.17;2.40;;;;;;;-1.32;66.08;101138.13;1689418;84;21096;-83
2022/02/28 06:31:58;;;;;;;2.90;2.70;;;;;;;-1.26;66.08;101136.60;1711296;82;21098;-81
2022/02/28 06:34:25;;;;;;;2.83;2.52;;;;;;;-1.20;65.72;101140.31;1678508;83;21290;-80
2022/02/28 06:36:52;;;;;;;3.52;2.60;;;;;;;-1.13;65.08;101139.75;1671769;84;21041;-83
2022/02/28 06:39:18;;;;;;;3.12;2.70;;;;;;;-1.16;64.24;101139.63;1689113;83;21058;-79
2022/02/28 06:41:45;;;;;;;4.25;2.70;;;;;;;-1.13;64.10;101140.14;1689155;83;21097;-82
2022/02/28 06:44:11;;;;;;;4.25;2.72;;;;;;;-1.08;64.14;101141.62;1689142;83;21055;-84
2022/02/28 06:46:37;;;;;;;2.90;2.60;;;;;;;-1.02;63.77;101140.16;1689628;83;21141;-83
2022/02/28 06:49:04;;;;;;;2.90;2.70;;;;;;;-0.97;63.42;101138.63;1689392;83;21276;-79
2022/02/28 06:51:31;;;;;;;4.83;2.70;;;;;;;-0.90;62.76;101129.41;1689871;83;21486;-84
2022/02/28 06:53:57;;;;;;;6.47;4.03;;;;;;;-0.85;62.91;101133.04;1698892;82;21127;-83
2022/02/28 06:56:23;;;;;;;5.65;3.08;;;;;;;-0.78;62.19;101124.69;1689706;83;21117;-81
2022/02/28 06:58:50;;;;;;;3.83;2.90;;;;;;;-0.71;62.07;101132.68;1692030;83;22328;-81
2022/02/28 07:01:16;;;;;;;4.47;2.95;;;;;;;-0.68;61.71;101132.80;1680494;84;21107;-81
2022/02/28 07:03:46;;;;;;;4.42;2.98;;;;;;;-0.62;61.66;101135.62;1675163;84;21091;-85
2022/02/28 07:06:13;;;;;;;3.12;2.77;;;;;;;-0.53;61.70;101143.70;1677997;82;21173;-79
2022/02/28 07:08:41;;;;;;;8.75;3.33;;;;;;;-0.45;60.94;101137.52;1738943;82;21694;-84
2022/02/28 07:11:08;;;;;;;4.17;3.20;;;;;;;-0.42;61.07;101141.48;1738919;82;21130;-80
2022/02/28 07:13:36;;;;;;;3.92;2.98;;;;;;;-0.38;60.17;101140.37;1739811;82;21051;-81
2022/02/28 07:16:03;;;;;;;7.03;3.00;;;;;;;-0.30;59.74;101142.34;1740999;82;21052;-83
2022/02/28 07:18:29;;;;;;;3.45;3.10;;;;;;;-0.26;58.95;101143.80;1740242;81;21673;-78
2022/02/28 07:20:56;;;;;;;3.08;2.83;;;;;;;-0.22;59.06;101139.23;1739971;82;21014;-80
2022/02/28 07:23:23;;;;;;;3.33;2.95;;;;;;;-0.16;58.40;101145.02;1732736;82;22573;-79
2022/02/28 07:25:49;;;;;;;3.30;3.00;;;;;;;-0.09;58.52;101140.52;1732461;82;21051;-82
2022/02/28 07:28:15;;;;;;;3.30;3.00;;;;;;;-0.01;58.56;101140.37;1733367;82;21066;-78
2022/02/28 07:30:42;;;;;;;2.98;2.70;;;;;;;0.14;57.93;101140.02;1741053;81;21174;-80
2022/02/28 07:33:08;;;;;;;6.62;3.22;;;;;;;0.23;57.29;101143.75;1736665;80;21060;-79
2022/02/28 07:35:35;;;;;;;4.28;3.10;;;;;;;0.25;56.80;101139.07;1732575;82;21587;-80
2022/02/28 07:38:02;;;;;;;4.85;3.08;;;;;;;0.28;57.01;101140.47;1716600;81;21142;-79
2022/02/28 07:40:29;;;;;;;3.42;3.00;;;;;;;0.38;56.59;101142.09;1680859;83;21070;-81
2022/02/28 07:42:55;;;;;;;3.47;2.98;;;;;;;0.47;55.91;101145.87;1680485;84;21713;-79
2022/02/28 07:45:22;;;;;;;3.35;2.92;;;;;;;0.50;55.14;101142.48;1677660;84;21031;-80
2022/02/28 07:47:48;;;;;;;3.33;3.02;;;;;;;0.52;55.01;101144.69;1715349;82;21748;-80
2022/02/28 07:50:15;;;;;;;3.85;3.17;;;;;;;0.55;54.36;101144.80;1676645;83;21083;-78
2022/02/28 07:52:41;;;;;;;2.83;2.52;;;;;;;0.57;54.47;101148.31;1684730;83;22066;-77
2022/02/28 07:55:08;;;;;;;3.12;2.70;;;;;;;0.66;53.89;101151.21;1680864;83;21118;-80
2022/02/28 07:57:35;;;;;;;7.37;2.70;;;;;;;0.70;53.15;101147.00;1715955;82;21098;-78
2022/02/28 08:00:06;;;;;;;5.12;2.70;;;;;;;0.70;53.26;101150.47;1711045;82;39208;-79
2022/02/28 08:02:34;;;;;;;12.03;3.75;;;;;;;0.77;53.52;101148.08;1730859;82;21637;-79
2022/02/28 08:05:00;;;;;;;3.85;2.62;;;;;;;0.88;52.75;101150.17;1738558;82;21072;-79
2022/02/28 08:07:27;;;;;;;3.40;2.80;;;;;;;0.94;52.22;101149.47;1739800;82;21057;-81
2022/02/28 08:09:54;;;;;;;4.00;2.80;;;;;;;0.95;52.10;101156.42;1739521;82;21065;-79
2022/02/28 08:12:20;;;;;;;3.00;2.70;;;;;;;0.98;51.91;101153.94;1713078;81;21577;-81
2022/02/28 08:14:47;;;;;;;3.83;2.50;;;;;;;1.03;52.34;101148.91;1718549;80;21075;-79
2022/02/28 08:17:13;;;;;;;3.30;2.75;;;;;;;1.13;52.15;101155.22;1711830;82;22021;-84
2022/02/28 08:19:39;;;;;;;2.50;2.30;;;;;;;1.25;51.80;101154.31;1683617;83;21122;-79
2022/02/28 08:22:06;;;;;;;3.58;3.12;;;;;;;1.34;51.27;101153.70;1704210;84;21066;-79
2022/02/28 08:24:32;;;;;;;3.52;2.95;;;;;;;1.41;51.38;101155.63;1704573;84;21510;-81
2022/02/28 08:27:00;;;;;;;3.67;2.72;;;;;;;1.44;50.65;101155.29;1679115;84;21087;-79
2022/02/28 08:29:26;;;;;;;2.30;2.20;;;;;;;1.44;50.45;101148.80;1676268;85;21067;-80
2022/02/28 08:31:53;;;;;;;3.30;3.00;;;;;;;1.53;50.97;101146.92;1703542;82;21119;-77
2022/02/28 08:34:19;;;;;;;4.28;3.00;;;;;;;1.63;50.59;101138.95;1669202;84;21122;-78
2022/02/28 08:36:46;;;;;;;4.33;3.20;;;;;;;1.71;49.06;101140.05;1676279;85;21985;-79
2022/02/28 08:39:12;;;;;;;2.75;2.50;;;;;;;1.76;49.62;101149.27;1711100;83;21064;-79
2022/02/28 08:41:38;;;;;;;5.50;2.92;;;;;;;1.79;49.50;101150.22;1710734;82;21070;-77
2022/02/28 08:44:07;;;;;;;3.20;2.87;;;;;;;1.83;49.91;101144.30;1710846;83;21040;-81
2022/02/28 08:46:36;;;;;;;6.78;2.87;;;;;;;1.94;49.63;101138.51;1711029;82;21103;-78
2022/02/28 08:49:04;;;;;;;3.80;3.00;;;;;;;2.03;49.15;101138.73;1710475;82;21142;-81
2022/02/28 08:51:31;;;;;;;3.85;2.62;;;;;;;2.11;49.10;101132.03;1711060;83;21020;-78
2022/02/28 08:53:58;;;;;;;4.72;2.70;;;;;;;2.18;48.72;101135.23;1742610;81;21551;-81
2022/02/28 08:56:24;;;;;;;4.67;2.83;;;;;;;2.22;47.83;101131.89;1720261;81;22100;-81
2022/02/28 08:58:50;;;;;;;4.28;2.65;;;;;;;2.28;48.79;101128.98;1711555;83;21007;-79
2022/02/28 09:01:17;;;;;;;3.00;2.60;;;;;;;2.42;48.62;101132.80;1716626;82;21133;-76
2022/02/28 09:03:44;;;;;;;3.40;2.40;;;;;;;2.54;48.54;101127.02;1737905;82;21154;-77
2022/02/28 09:06:11;;;;;;;2.98;2.77;;;;;;;2.65;47.78;101133.78;1737909;80;21557;-77
2022/02/28 09:08:37;;;;;;;3.33;3.02;;;;;;;2.75;47.40;101135.75;1737999;82;21059;-79
2022/02/28 09:11:03;;;;;;;4.22;2.80;;;;;;;2.88;47.21;101134.33;1738119;82;21069;-77
2022/02/28 09:13:30;;;;;;;2.72;2.50;;;;;;;3.03;46.50;101129.90;1739813;82;22222;-80
2022/02/28 09:15:57;;;;;;;3.58;2.72;;;;;;;3.13;47.02;101129.25;1740459;81;21107;-85
2022/02/28 09:18:24;;;;;;;5.47;2.85;;;;;;;3.19;46.37;101128.50;1676778;83;21071;-80
2022/02/28 09:20:50;;;;;;;3.72;2.90;;;;;;;3.26;46.38;101123.47;1712379;82;21067;-81
2022/02/28 09:23:16;;;;;;;5.42;2.80;;;;;;;3.39;46.73;101125.02;1727658;82;21071;-82
2022/02/28 09:25:43;;;;;;;3.05;2.60;;;;;;;3.51;45.95;101118.75;1720369;81;21126;-79
2022/02/28 09:28:09;;;;;;;5.62;3.27;;;;;;;3.56;45.26;101113.64;1711415;82;21008;-80
2022/02/28 09:30:36;;;;;;;2.50;2.30;;;;;;;3.61;45.75;101104.20;1679361;85;21604;-81
2022/02/28 09:33:03;;;;;;;3.12;2.58;;;;;;;3.72;44.92;101107.89;1769007;80;21063;-81
2022/02/28 09:35:29;;;;;;;2.90;2.42;;;;;;;3.81;44.17;101107.18;1765670;80;21108;-80
2022/02/28 09:37:58;;;;;;;5.00;2.62;;;;;;;3.83;43.86;101108.08;1734985;80;21156;-81
2022/02/28 09:40:29;;;;;;;5.20;2.52;;;;;;;3.90;44.13;101102.13;1747686;80;21052;-80
2022/02/28 09:43:06;;;;;;;2.80;2.42;;;;;;;4.03;44.93;101102.80;1645736;86;21098;-81
2022/02/28 09:45:53;;;;;;;2.83;2.55;;;;;;;4.12;43.68;101107.72;1711236;82;21624;-84
2022/02/28 09:48:27;;;;;;;3.37;2.72;;;;;;;4.12;43.76;101097.30;1672967;82;21626;-77
2022/02/28 09:50:56;;;;;;;2.90;2.67;;;;;;;4.23;44.66;101090.55;1709244;83;21241;-83
2022/02/28 09:53:36;;;;;;;4.20;3.22;;;;;;;4.40;44.33;101099.51;1684342;84;21088;-79
2022/02/28 09:56:04;;;;;;;4.50;3.17;;;;;;;4.45;43.60;101092.67;1695516;84;21033;-80
2022/02/28 09:58:33;;;;;;;3.77;3.10;;;;;;;4.57;43.86;101094.99;1720157;82;21064;-75
2022/02/28 10:00:59;;;;;;;5.37;3.25;;;;;;;4.72;44.02;101090.00;1709397;83;21110;-77
2022/02/28 10:03:27;;;;;;;5.97;3.22;;;;;;;4.81;42.49;101091.45;1740890;82;22337;-78
2022/02/28 10:06:01;;;;;;;5.47;2.95;;;;;;;4.68;42.32;101084.31;1743708;82;21095;-79
2022/02/28 10:08:54;;;;;;;4.42;3.15;;;;;;;4.58;42.03;101085.03;1725904;82;29540;-79
2022/02/28 10:11:41;;;;;;;3.65;2.87;;;;;;;4.43;41.96;101073.50;1718476;82;21506;-81
2022/02/28 10:14:10;;;;;;;3.67;3.00;;;;;;;4.29;42.77;101071.13;1701073;82;21098;-81
2022/02/28 10:16:46;;;;;;;7.10;3.00;;;;;;;4.25;42.51;101064.98;1713562;83;22230;-81
2022/02/28 10:19:17;;;;;;;3.58;3.12;;;;;;;4.21;43.25;101067.08;1712911;83;21023;-81
2022/02/28 10:21:54;;;;;;;8.58;3.45;;;;;;;4.33;43.87;101075.95;1749089;81;21367;-80
2022/02/28 10:24:30;;;;;;;3.30;3.00;;;;;;;4.39;42.39;101067.80;1713009;83;21050;-80
2022/02/28 10:27:06;;;;;;;3.42;2.85;;;;;;;4.42;43.27;101061.75;1747406;81;21152;-78
2022/02/28 10:29:50;;;;;;;4.17;2.72;;;;;;;4.48;42.49;101059.25;1749214;82;21798;-78
2022/02/28 10:32:49;;;;;;;8.58;2.65;;;;;;;4.57;42.00;101051.58;1727440;80;21078;-78
2022/02/28 10:38:20;;;;;;;3.15;2.70;;;;;;;4.55;42.45;101044.14;1687734;83;22314;-81
2022/02/28 10:40:46;;;;;;;3.60;2.40;;;;;;;4.68;42.20;101049.55;1712955;83;21071;-81
2022/02/28 10:43:32;;;;;;;4.95;2.85;;;;;;;4.76;41.95;101054.45;1713193;83;22277;-80
2022/02/28 10:45:58;;;;;;;4.37;2.30;;;;;;;4.86;41.75;101048.91;1698563;83;21109;-77
2022/02/28 10:48:25;;;;;;;2.50;2.30;;;;;;;5.02;41.67;101049.56;1713305;83;21625;-80
2022/02/28 10:50:53;;;;;;;2.67;2.30;;;;;;;5.09;40.43;101047.47;1712700;83;21514;-77
2022/02/28 10:53:22;;;;;;;3.65;2.40;;;;;;;5.07;40.48;101042.66;1726069;82;21369;-78
2022/02/28 10:55:51;;;;;;;2.90;2.27;;;;;;;5.09;40.72;101052.68;1748849;82;22518;-79
2022/02/28 10:58:24;;;;;;;6.05;2.45;;;;;;;5.18;41.30;101043.68;1748133;82;21496;-80
2022/02/28 11:00:59;;;;;;;4.12;2.25;;;;;;;5.37;40.83;101039.98;1712680;83;21074;-78
2022/02/28 11:03:47;;;;;;;2.60;2.40;;;;;;;5.52;40.75;101041.45;1746651;82;21060;-78
2022/02/28 11:06:22;;;;;;;8.08;2.55;;;;;;;5.62;39.74;101036.33;1744370;82;21931;-78
2022/02/28 11:08:48;;;;;;;4.97;2.22;;;;;;;5.60;38.66;101031.09;1739014;82;21766;-79
2022/02/28 11:11:15;;;;;;;2.05;1.95;;;;;;;5.52;39.40;101027.09;1738727;82;21101;-81
2022/02/28 11:13:45;;;;;;;6.03;2.58;;;;;;;5.52;39.11;101024.47;1752271;81;21079;-81
2022/02/28 11:16:13;;;;;;;2.83;2.20;;;;;;;5.55;38.45;101021.91;1736279;81;21896;-82
2022/02/28 11:18:40;;;;;;;5.55;2.35;;;;;;;5.53;38.12;101026.64;1734961;82;21562;-79
2022/02/28 11:21:07;;;;;;;3.17;1.87;;;;;;;5.55;39.20;101027.13;1738889;82;21092;-84
2022/02/28 11:23:41;;;;;;;4.42;2.08;;;;;;;5.68;38.92;101020.70;1741266;82;21063;-82
2022/02/28 11:26:08;;;;;;;1.70;1.60;;;;;;;5.76;38.05;101030.80;1742098;81;21036;-79
2022/02/28 11:28:35;;;;;;;3.12;2.22;;;;;;;5.77;37.47;101019.50;1742438;81;21068;-81
2022/02/28 11:31:09;;;;;;;2.27;1.72;;;;;;;5.72;37.28;101025.11;1739865;81;20941;-82
2022/02/28 11:33:35;;;;;;;2.40;2.20;;;;;;;5.65;38.98;101020.67;1721744;80;21158;-78